createdAt,value
2023-01-11T00:00:11.965Z,6.40
2023-01-11T00:01:11.988Z,5.60
2023-01-11T00:02:11.998Z,6.10
2023-01-11T00:03:11.930Z,5.80
2023-01-11T00:04:11.966Z,6.10
2023-01-11T00:05:11.928Z,5.80
2023-01-11T00:06:11.906Z,5.60
2023-01-11T00:07:11.925Z,5.70
2023-01-11T00:08:11.899Z,5.70
2023-01-11T00:09:11.889Z,6.00
2023-01-11T00:10:11.874Z,6.20
2023-01-11T00:11:11.872Z,6.10
2023-01-11T00:12:11.874Z,6.90
2023-01-11T00:13:11.851Z,5.80
2023-01-11T00:14:11.843Z,5.90
2023-01-11T00:15:11.838Z,5.90
2023-01-11T00:16:11.847Z,5.50
2023-01-11T00:17:11.828Z,6.20
2023-01-11T00:18:11.808Z,5.70
2023-01-11T00:19:11.799Z,5.70
2023-01-11T00:20:11.789Z,5.80
2023-01-11T00:21:11.781Z,6.00
2023-01-11T00:22:11.784Z,5.50
2023-01-11T00:23:11.774Z,5.60
2023-01-11T00:24:11.762Z,5.70
2023-01-11T00:25:11.759Z,5.80
2023-01-11T00:26:11.740Z,5.70
2023-01-11T00:27:11.741Z,5.70
2023-01-11T00:28:11.718Z,5.60
2023-01-11T00:29:11.715Z,5.70
2023-01-11T00:30:11.709Z,5.70
2023-01-11T00:31:11.811Z,5.60
2023-01-11T00:32:11.697Z,5.40
2023-01-11T00:33:11.676Z,5.80
2023-01-11T00:34:11.666Z,5.30
2023-01-11T00:35:11.657Z,5.60
2023-01-11T00:36:11.652Z,5.70
2023-01-11T00:37:11.657Z,5.80
2023-01-11T00:38:11.639Z,5.70
2023-01-11T00:39:11.651Z,5.40
2023-01-11T00:40:11.616Z,5.70
2023-01-11T00:41:11.611Z,5.90
2023-01-11T00:42:11.617Z,6.00
2023-01-11T00:43:11.672Z,5.40
2023-01-11T00:44:11.589Z,5.80
2023-01-11T00:45:11.578Z,5.50
2023-01-11T00:46:11.616Z,5.50
2023-01-11T00:47:11.580Z,6.00
2023-01-11T00:48:11.564Z,6.80
2023-01-11T00:49:11.542Z,6.30
2023-01-11T00:50:11.546Z,6.40
2023-01-11T00:51:11.532Z,6.30
2023-01-11T00:52:11.527Z,6.60
2023-01-11T00:53:11.512Z,6.30
2023-01-11T00:54:11.499Z,6.20
2023-01-11T00:55:11.497Z,7.10
2023-01-11T00:56:11.483Z,7.50
2023-01-11T00:57:11.497Z,6.60
2023-01-11T00:58:11.465Z,6.60
2023-01-11T00:59:11.451Z,7.70
2023-01-11T01:00:11.463Z,7.50
2023-01-11T01:01:11.536Z,7.00
2023-01-11T01:02:11.541Z,6.40
2023-01-11T01:03:11.438Z,6.70
2023-01-11T01:04:11.409Z,6.70
2023-01-11T01:05:11.437Z,6.70
2023-01-11T01:06:11.411Z,6.30
2023-01-11T01:07:11.404Z,6.90
2023-01-11T01:08:11.372Z,6.50
2023-01-11T01:09:11.373Z,6.50
2023-01-11T01:10:11.379Z,7.10
2023-01-11T01:11:11.348Z,7.70
2023-01-11T01:12:11.357Z,7.20
2023-01-11T01:13:11.344Z,7.30
2023-01-11T01:14:11.328Z,7.30
2023-01-11T01:15:11.322Z,7.70
2023-01-11T01:16:11.398Z,7.30
2023-01-11T01:17:11.301Z,7.50
2023-01-11T01:18:11.309Z,7.50
2023-01-11T01:19:11.279Z,7.30
2023-01-11T01:20:11.275Z,7.60
2023-01-11T01:21:11.264Z,7.90
2023-01-11T01:22:11.274Z,7.50
2023-01-11T01:23:11.253Z,8.20
2023-01-11T01:24:11.239Z,7.60
2023-01-11T01:25:11.235Z,8.10
2023-01-11T01:26:11.227Z,8.50
2023-01-11T01:27:11.208Z,8.50
2023-01-11T01:28:11.216Z,9.30
2023-01-11T01:29:11.194Z,8.40
2023-01-11T01:30:11.202Z,9.50
2023-01-11T01:31:11.227Z,8.90
2023-01-11T01:32:11.165Z,8.60
2023-01-11T01:33:11.164Z,9.10
2023-01-11T01:34:11.147Z,9.10
2023-01-11T01:35:11.154Z,9.00
2023-01-11T01:36:11.139Z,8.90
2023-01-11T01:37:11.124Z,9.00
2023-01-11T01:38:12.119Z,9.60
2023-01-11T01:39:11.146Z,8.70
2023-01-11T01:40:11.098Z,9.30
2023-01-11T01:41:11.079Z,9.20
2023-01-11T01:42:11.073Z,9.60
2023-01-11T01:43:11.083Z,8.90
2023-01-11T01:44:11.059Z,8.90
2023-01-11T01:45:11.050Z,8.60
2023-01-11T01:46:11.091Z,8.50
2023-01-11T01:47:11.036Z,9.20
2023-01-11T01:48:11.037Z,9.10
2023-01-11T01:49:11.014Z,8.90
2023-01-11T01:50:11.001Z,9.00
2023-01-11T01:51:11.008Z,9.20
2023-01-11T01:52:10.987Z,9.40
2023-01-11T01:53:10.985Z,9.00
2023-01-11T01:54:10.968Z,9.80
2023-01-11T01:55:10.987Z,9.00
2023-01-11T01:56:10.950Z,8.90
2023-01-11T01:57:10.945Z,9.00
2023-01-11T01:58:10.941Z,9.40
2023-01-11T01:59:10.941Z,8.40
2023-01-11T02:00:10.927Z,8.90
2023-01-11T02:01:10.908Z,9.10
2023-01-11T02:02:10.898Z,8.90
2023-01-11T02:03:10.925Z,9.10
2023-01-11T02:04:10.879Z,8.90
2023-01-11T02:05:10.887Z,9.20
2023-01-11T02:06:10.860Z,8.90
2023-01-11T02:07:10.853Z,9.00
2023-01-11T02:08:10.856Z,9.10
2023-01-11T02:09:10.835Z,8.30
2023-01-11T02:10:10.825Z,9.00
2023-01-11T02:11:10.823Z,8.30
2023-01-11T02:12:10.807Z,8.60
2023-01-11T02:13:10.822Z,9.20
2023-01-11T02:14:10.793Z,9.30
2023-01-11T02:15:10.789Z,8.30
2023-01-11T02:16:10.834Z,8.30
2023-01-11T02:17:10.762Z,8.20
2023-01-11T02:18:10.762Z,8.50
2023-01-11T02:19:10.747Z,7.90
2023-01-11T02:20:10.740Z,8.10
2023-01-11T02:21:10.725Z,8.20
2023-01-11T02:22:10.716Z,8.20
2023-01-11T02:23:10.724Z,7.60
2023-01-11T02:24:10.709Z,8.00
2023-01-11T02:25:10.689Z,8.30
2023-01-11T02:26:10.683Z,7.90
2023-01-11T02:27:10.676Z,8.20
2023-01-11T02:28:10.677Z,8.00
2023-01-11T02:29:10.658Z,8.20
2023-01-11T02:30:10.650Z,8.30
2023-01-11T02:31:10.665Z,8.30
2023-01-11T02:32:10.635Z,8.50
2023-01-11T02:33:10.633Z,8.10
2023-01-11T02:34:10.609Z,8.70
2023-01-11T02:35:10.600Z,8.50
2023-01-11T02:36:10.597Z,8.10
2023-01-11T02:37:10.574Z,8.40
2023-01-11T02:38:10.589Z,8.70
2023-01-11T02:39:10.575Z,9.20
2023-01-11T02:40:10.558Z,8.70
2023-01-11T02:41:10.558Z,8.90
2023-01-11T02:42:10.539Z,8.70
2023-01-11T02:43:10.547Z,9.60
2023-01-11T02:44:10.522Z,9.10
2023-01-11T02:45:10.518Z,9.60
2023-01-11T02:46:10.580Z,9.60
2023-01-11T02:47:10.502Z,9.70
2023-01-11T02:48:10.505Z,9.60
2023-01-11T02:49:10.488Z,10.00
2023-01-11T02:50:10.483Z,9.60
2023-01-11T02:51:10.465Z,9.90
2023-01-11T02:52:10.454Z,10.20
2023-01-11T02:53:10.458Z,9.90
2023-01-11T02:54:10.438Z,10.80
2023-01-11T02:55:10.443Z,10.50
2023-01-11T02:56:10.420Z,10.60
2023-01-11T02:57:10.433Z,11.10
2023-01-11T02:58:10.432Z,12.10
2023-01-11T02:59:10.393Z,10.30
2023-01-11T03:00:10.379Z,11.60
2023-01-11T03:01:10.379Z,10.70
2023-01-11T03:02:10.363Z,11.30
2023-01-11T03:03:10.429Z,11.40
2023-01-11T03:04:10.350Z,11.70
2023-01-11T03:05:10.347Z,11.70
2023-01-11T03:06:10.329Z,12.10
2023-01-11T03:07:10.324Z,11.20
2023-01-11T03:08:10.319Z,12.00
2023-01-11T03:09:10.315Z,12.40
2023-01-11T03:10:10.301Z,11.20
2023-01-11T03:11:10.283Z,10.90
2023-01-11T03:12:10.277Z,11.40
2023-01-11T03:13:10.292Z,10.70
2023-01-11T03:14:10.257Z,11.20
2023-01-11T03:15:10.248Z,11.10
2023-01-11T03:16:10.272Z,11.40
2023-01-11T03:17:10.230Z,10.50
2023-01-11T03:18:10.227Z,11.20
2023-01-11T03:19:10.210Z,11.30
2023-01-11T03:20:10.206Z,11.80
2023-01-11T03:21:10.200Z,11.30
2023-01-11T03:22:10.201Z,11.10
2023-01-11T03:23:10.194Z,10.70
2023-01-11T03:24:10.170Z,11.00
2023-01-11T03:25:10.161Z,11.00
2023-01-11T03:26:10.152Z,11.20
2023-01-11T03:27:10.140Z,11.00
2023-01-11T03:28:10.144Z,10.20
2023-01-11T03:29:10.125Z,10.90
2023-01-11T03:30:10.117Z,10.80
2023-01-11T03:31:10.146Z,10.30
2023-01-11T03:32:10.101Z,10.90
2023-01-11T03:33:10.101Z,10.80
2023-01-11T03:34:10.096Z,11.60
2023-01-11T03:35:10.070Z,11.60
2023-01-11T03:36:10.088Z,10.20
2023-01-11T03:37:10.053Z,11.00
2023-01-11T03:38:10.059Z,10.70
2023-01-11T03:39:10.061Z,10.70
2023-01-11T03:40:10.027Z,10.50
2023-01-11T03:41:10.040Z,10.90
2023-01-11T03:42:10.014Z,10.90
2023-01-11T03:43:10.017Z,10.80
2023-01-11T03:44:09.994Z,10.40
2023-01-11T03:45:09.984Z,11.40
2023-01-11T03:46:09.972Z,11.00
2023-01-11T03:47:09.970Z,10.50
2023-01-11T03:48:09.985Z,11.10
2023-01-11T03:49:09.951Z,10.90
2023-01-11T03:50:09.940Z,11.10
2023-01-11T03:51:09.946Z,12.70
2023-01-11T03:52:09.920Z,11.30
2023-01-11T03:53:09.934Z,11.30
2023-01-11T03:54:09.906Z,10.20
2023-01-11T03:55:09.894Z,10.70
2023-01-11T03:56:09.891Z,11.20
2023-01-11T03:57:09.889Z,11.20
2023-01-11T03:58:09.886Z,10.80
2023-01-11T03:59:10.843Z,11.40
2023-01-11T04:00:09.859Z,11.00
2023-01-11T04:01:09.860Z,10.90
2023-01-11T04:02:09.837Z,11.40
2023-01-11T04:03:09.838Z,11.30
2023-01-11T04:04:09.839Z,11.20
2023-01-11T04:05:09.827Z,10.60
2023-01-11T04:06:09.798Z,11.80
2023-01-11T04:07:09.789Z,11.90
2023-01-11T04:08:09.796Z,10.90
2023-01-11T04:09:09.766Z,11.10
2023-01-11T04:10:09.767Z,11.20
2023-01-11T04:11:09.760Z,11.30
2023-01-11T04:12:09.741Z,10.90
2023-01-11T04:13:09.761Z,11.20
2023-01-11T04:14:09.732Z,11.10
2023-01-11T04:15:09.714Z,10.70
2023-01-11T04:16:09.733Z,11.00
2023-01-11T04:17:09.703Z,11.60
2023-01-11T04:18:09.703Z,10.90
2023-01-11T04:19:09.681Z,10.90
2023-01-11T04:20:09.672Z,11.20
2023-01-11T04:21:09.663Z,10.60
2023-01-11T04:22:09.651Z,10.80
2023-01-11T04:23:09.647Z,10.50
2023-01-11T04:24:09.650Z,10.90
2023-01-11T04:25:09.631Z,10.60
2023-01-11T04:26:09.623Z,10.20
2023-01-11T04:27:09.613Z,10.80
2023-01-11T04:28:09.608Z,10.60
2023-01-11T04:29:09.585Z,10.60
2023-01-11T04:30:09.580Z,10.40
2023-01-11T04:31:09.621Z,11.20
2023-01-11T04:32:09.562Z,11.00
2023-01-11T04:33:09.621Z,11.30
2023-01-11T04:34:09.559Z,10.80
2023-01-11T04:35:09.538Z,11.80
2023-01-11T04:36:09.525Z,11.50
2023-01-11T04:37:09.536Z,11.60
2023-01-11T04:38:09.527Z,11.60
2023-01-11T04:39:09.513Z,11.10
2023-01-11T04:40:09.499Z,11.50
2023-01-11T04:41:09.487Z,10.50
2023-01-11T04:42:09.499Z,11.50
2023-01-11T04:43:09.468Z,11.60
2023-01-11T04:44:09.474Z,11.60
2023-01-11T04:45:09.470Z,12.30
2023-01-11T04:46:09.493Z,11.50
2023-01-11T04:47:09.440Z,11.40
2023-01-11T04:48:09.424Z,11.60
2023-01-11T04:49:09.443Z,10.70
2023-01-11T04:50:09.457Z,11.30
2023-01-11T04:51:09.407Z,11.00
2023-01-11T04:52:09.379Z,11.30
2023-01-11T04:53:10.380Z,11.20
2023-01-11T04:54:09.378Z,11.90
2023-01-11T04:55:09.366Z,11.50
2023-01-11T04:56:09.355Z,11.50
2023-01-11T04:57:09.336Z,10.90
2023-01-11T04:58:09.351Z,11.70
2023-01-11T04:59:09.331Z,11.60
2023-01-11T05:00:10.322Z,12.00
2023-01-11T05:01:09.356Z,11.70
2023-01-11T05:02:09.303Z,11.60
2023-01-11T05:03:09.300Z,11.50
2023-01-11T05:04:09.342Z,11.60
2023-01-11T05:05:09.268Z,10.70
2023-01-11T05:06:09.261Z,11.10
2023-01-11T05:07:09.254Z,10.70
2023-01-11T05:08:09.254Z,11.20
2023-01-11T05:09:09.252Z,11.40
2023-01-11T05:10:09.222Z,11.70
2023-01-11T05:11:09.249Z,11.00
2023-01-11T05:12:09.205Z,11.50
2023-01-11T05:13:09.200Z,11.10
2023-01-11T05:14:09.211Z,11.60
2023-01-11T05:15:09.266Z,11.40
2023-01-11T05:16:09.216Z,12.00
2023-01-11T05:17:09.172Z,11.90
2023-01-11T05:18:09.155Z,11.90
2023-01-11T05:19:09.156Z,11.90
2023-01-11T05:20:09.129Z,11.30
2023-01-11T05:21:09.130Z,11.80
2023-01-11T05:22:09.119Z,11.20
2023-01-11T05:23:09.106Z,11.80
2023-01-11T05:24:09.111Z,11.30
2023-01-11T05:25:09.089Z,12.00
2023-01-11T05:26:09.085Z,11.90
2023-01-11T05:27:09.068Z,12.30
2023-01-11T05:28:09.057Z,12.10
2023-01-11T05:29:09.059Z,12.60
2023-01-11T05:30:09.045Z,12.40
2023-01-11T05:31:09.037Z,13.70
2023-01-11T05:32:09.021Z,13.60
2023-01-11T05:33:09.010Z,13.60
2023-01-11T05:34:09.015Z,13.60
2023-01-11T05:35:08.988Z,13.40
2023-01-11T05:36:09.005Z,13.90
2023-01-11T05:37:08.974Z,14.40
2023-01-11T05:38:08.967Z,14.60
2023-01-11T05:39:08.976Z,14.60
2023-01-11T05:40:08.940Z,15.00
2023-01-11T05:41:08.941Z,14.70
2023-01-11T05:42:08.926Z,14.70
2023-01-11T05:43:08.916Z,13.50
2023-01-11T05:44:08.919Z,14.60
2023-01-11T05:45:08.906Z,14.00
2023-01-11T05:46:08.919Z,14.30
2023-01-11T05:47:08.886Z,15.20
2023-01-11T05:48:08.871Z,15.70
2023-01-11T05:49:08.872Z,16.00
2023-01-11T05:50:08.850Z,15.80
2023-01-11T05:51:08.837Z,15.80
2023-01-11T05:52:08.831Z,16.10
2023-01-11T05:53:08.822Z,15.90
2023-01-11T05:54:08.825Z,16.20
2023-01-11T05:55:08.802Z,16.40
2023-01-11T05:56:08.796Z,15.90
2023-01-11T05:57:08.777Z,17.20
2023-01-11T05:58:08.797Z,17.20
2023-01-11T05:59:08.783Z,16.10
2023-01-11T06:00:08.753Z,16.50
2023-01-11T06:01:08.750Z,16.30
2023-01-11T06:02:08.857Z,16.00
2023-01-11T06:03:08.774Z,16.10
2023-01-11T06:04:08.781Z,15.50
2023-01-11T06:05:08.716Z,16.50
2023-01-11T06:06:08.721Z,15.40
2023-01-11T06:07:08.695Z,15.70
2023-01-11T06:08:08.678Z,15.10
2023-01-11T06:09:09.688Z,15.60
2023-01-11T06:10:08.672Z,15.10
2023-01-11T06:11:08.657Z,15.20
2023-01-11T06:12:08.660Z,15.10
2023-01-11T06:13:08.761Z,15.20
2023-01-11T06:14:08.635Z,14.80
2023-01-11T06:15:08.621Z,16.20
2023-01-11T06:16:08.685Z,16.30
2023-01-11T06:17:08.604Z,15.30
2023-01-11T06:18:08.599Z,15.30
2023-01-11T06:19:08.595Z,15.60
2023-01-11T06:20:08.655Z,14.90
2023-01-11T06:21:08.567Z,15.30
2023-01-11T06:22:08.561Z,14.50
2023-01-11T06:23:08.547Z,15.00
2023-01-11T06:24:08.577Z,14.40
2023-01-11T06:25:08.538Z,14.60
2023-01-11T06:26:08.529Z,15.10
2023-01-11T06:27:08.529Z,16.10
2023-01-11T06:28:08.507Z,18.00
2023-01-11T06:29:08.512Z,16.00
2023-01-11T06:30:08.496Z,15.80
2023-01-11T06:31:08.587Z,15.80
2023-01-11T06:32:08.472Z,15.50
2023-01-11T06:33:08.473Z,14.80
2023-01-11T06:34:08.468Z,14.80
2023-01-11T06:35:08.463Z,13.60
2023-01-11T06:36:08.438Z,13.40
2023-01-11T06:37:08.435Z,13.10
2023-01-11T06:38:08.425Z,13.20
2023-01-11T06:39:08.418Z,13.30
2023-01-11T06:40:08.404Z,13.00
2023-01-11T06:41:08.493Z,13.20
2023-01-11T06:42:08.388Z,14.60
2023-01-11T06:43:08.377Z,14.80
2023-01-11T06:44:08.391Z,15.60
2023-01-11T06:45:08.357Z,13.60
2023-01-11T06:46:08.394Z,13.70
2023-01-11T06:47:08.351Z,12.60
2023-01-11T06:48:08.338Z,13.40
2023-01-11T06:49:08.340Z,11.00
2023-01-11T06:50:08.328Z,11.60
2023-01-11T06:51:08.307Z,12.10
2023-01-11T06:52:08.299Z,12.00
2023-01-11T06:53:08.291Z,12.00
2023-01-11T06:54:08.285Z,11.80
2023-01-11T06:55:09.292Z,13.00
2023-01-11T06:56:08.290Z,12.80
2023-01-11T06:57:08.256Z,13.00
2023-01-11T06:58:08.243Z,13.30
2023-01-11T06:59:08.241Z,12.40
2023-01-11T07:00:08.226Z,14.40
2023-01-11T07:01:08.245Z,13.10
2023-01-11T07:02:08.211Z,13.00
2023-01-11T07:03:08.201Z,12.10
2023-01-11T07:04:08.201Z,12.40
2023-01-11T07:05:08.259Z,12.00
2023-01-11T07:06:08.171Z,13.00
2023-01-11T07:07:08.165Z,13.10
2023-01-11T07:08:08.150Z,11.50
2023-01-11T07:09:08.165Z,12.10
2023-01-11T07:10:08.140Z,12.60
2023-01-11T07:11:08.157Z,12.80
2023-01-11T07:12:08.129Z,12.40
2023-01-11T07:13:08.113Z,12.30
2023-01-11T07:14:08.138Z,12.00
2023-01-11T07:15:08.098Z,11.50
2023-01-11T07:16:08.118Z,12.80
2023-01-11T07:17:08.081Z,12.90
2023-01-11T07:18:08.071Z,12.90
2023-01-11T07:19:08.081Z,12.90
2023-01-11T07:20:08.073Z,12.80
2023-01-11T07:21:08.068Z,13.10
2023-01-11T07:22:08.039Z,13.70
2023-01-11T07:23:08.030Z,13.40
2023-01-11T07:24:08.034Z,14.00
2023-01-11T07:25:08.005Z,13.50
2023-01-11T07:26:08.044Z,14.60
2023-01-11T07:27:07.994Z,14.90
2023-01-11T07:28:08.022Z,15.30
2023-01-11T07:29:07.982Z,14.00
2023-01-11T07:30:09.775Z,14.70
2023-01-11T07:31:08.992Z,15.50
2023-01-11T07:32:07.954Z,14.50
2023-01-11T07:33:07.935Z,14.20
2023-01-11T07:34:07.932Z,14.50
2023-01-11T07:35:07.941Z,15.40
2023-01-11T07:36:07.910Z,16.30
2023-01-11T07:37:07.905Z,16.20
2023-01-11T07:38:08.884Z,17.40
2023-01-11T07:39:07.906Z,17.10
2023-01-11T07:40:07.891Z,16.50
2023-01-11T07:41:07.869Z,17.00
2023-01-11T07:42:07.876Z,15.30
2023-01-11T07:43:07.849Z,15.70
2023-01-11T07:44:07.841Z,14.80
2023-01-11T07:45:07.835Z,16.60
2023-01-11T07:46:07.917Z,15.20
2023-01-11T07:47:07.837Z,16.60
2023-01-11T07:48:07.806Z,15.20
2023-01-11T07:49:07.794Z,13.10
2023-01-11T07:50:07.808Z,14.60
2023-01-11T07:51:07.787Z,14.10
2023-01-11T07:52:07.783Z,15.50
2023-01-11T07:53:07.762Z,16.60
2023-01-11T07:54:07.750Z,13.90
2023-01-11T07:55:07.783Z,14.30
2023-01-11T07:56:07.739Z,13.50
2023-01-11T07:57:07.722Z,13.10
2023-01-11T07:58:07.710Z,13.40
2023-01-11T07:59:08.700Z,14.00
2023-01-11T08:00:07.716Z,13.80
2023-01-11T08:01:07.688Z,15.20
2023-01-11T08:02:07.690Z,13.80
2023-01-11T08:03:07.916Z,14.10
2023-01-11T08:04:07.675Z,13.10
2023-01-11T08:05:07.663Z,13.10
2023-01-11T08:06:07.643Z,14.50
2023-01-11T08:07:07.630Z,13.30
2023-01-11T08:08:07.616Z,11.50
2023-01-11T08:09:07.609Z,13.00
2023-01-11T08:10:07.618Z,12.40
2023-01-11T08:11:07.592Z,11.90
2023-01-11T08:12:07.588Z,12.20
2023-01-11T08:13:07.567Z,12.50
2023-01-11T08:14:07.563Z,12.30
2023-01-11T08:15:07.562Z,13.00
2023-01-11T08:16:07.650Z,13.60
2023-01-11T08:17:07.533Z,12.40
2023-01-11T08:18:07.530Z,12.40
2023-01-11T08:19:07.516Z,13.10
2023-01-11T08:20:07.535Z,13.30
2023-01-11T08:21:07.503Z,12.80
2023-01-11T08:22:07.512Z,12.60
2023-01-11T08:23:07.466Z,11.90
2023-01-11T08:24:08.466Z,11.90
2023-01-11T08:25:07.477Z,11.70
2023-01-11T08:26:07.445Z,11.50
2023-01-11T08:27:07.551Z,11.50
2023-01-11T08:28:07.460Z,10.40
2023-01-11T08:29:07.523Z,11.10
2023-01-11T08:30:07.420Z,10.80
2023-01-11T08:31:07.557Z,9.50
2023-01-11T08:32:07.399Z,11.80
2023-01-11T08:33:07.401Z,11.60
2023-01-11T08:34:07.394Z,12.00
2023-01-11T08:35:07.379Z,11.70
2023-01-11T08:36:07.367Z,10.40
2023-01-11T08:37:07.348Z,10.50
2023-01-11T08:38:07.334Z,10.90
2023-01-11T08:39:07.327Z,10.70
2023-01-11T08:40:07.330Z,10.60
2023-01-11T08:41:07.301Z,10.60
2023-01-11T08:42:07.301Z,12.10
2023-01-11T08:43:07.309Z,11.40
2023-01-11T08:44:07.270Z,10.70
2023-01-11T08:45:07.285Z,10.90
2023-01-11T08:46:07.349Z,10.50
2023-01-11T08:47:07.251Z,11.30
2023-01-11T08:48:07.237Z,10.80
2023-01-11T08:49:07.232Z,9.60
2023-01-11T08:50:07.226Z,10.00
2023-01-11T08:51:07.219Z,9.90
2023-01-11T08:52:07.213Z,10.60
2023-01-11T08:53:07.197Z,11.30
2023-01-11T08:54:07.192Z,11.00
2023-01-11T08:55:08.213Z,9.20
2023-01-11T08:56:07.171Z,9.60
2023-01-11T08:57:07.150Z,9.60
2023-01-11T08:58:07.141Z,8.70
2023-01-11T08:59:07.141Z,9.30
2023-01-11T09:00:07.133Z,9.00
2023-01-11T09:01:07.154Z,10.00
2023-01-11T09:02:07.102Z,9.40
2023-01-11T09:03:07.142Z,9.30
2023-01-11T09:04:15.822Z,9.10
2023-01-11T09:05:09.100Z,8.60
2023-01-11T09:06:07.078Z,7.80
2023-01-11T09:07:07.057Z,8.10
2023-01-11T09:08:07.053Z,8.50
2023-01-11T09:09:07.036Z,9.40
2023-01-11T09:10:07.053Z,8.50
2023-01-11T09:11:07.018Z,8.70
2023-01-11T09:12:07.004Z,8.70
2023-01-11T09:13:07.026Z,9.10
2023-01-11T09:14:06.997Z,9.10
2023-01-11T09:15:06.997Z,10.00
2023-01-11T09:16:07.023Z,8.10
2023-01-11T09:17:07.001Z,8.00
2023-01-11T09:18:07.580Z,7.60
2023-01-11T09:19:06.944Z,7.20
2023-01-11T09:20:06.963Z,7.30
2023-01-11T09:21:06.923Z,8.20
2023-01-11T09:22:06.918Z,7.40
2023-01-11T09:23:06.908Z,6.40
2023-01-11T09:24:06.908Z,6.80
2023-01-11T09:25:06.904Z,7.70
2023-01-11T09:26:06.876Z,7.20
2023-01-11T09:27:06.906Z,7.70
2023-01-11T09:28:06.864Z,8.30
2023-01-11T09:29:06.902Z,8.10
2023-01-11T09:30:06.848Z,7.20
2023-01-11T09:31:06.838Z,8.10
2023-01-11T09:32:06.821Z,7.80
2023-01-11T09:33:06.817Z,8.00
2023-01-11T09:34:06.838Z,7.60
2023-01-11T09:35:06.801Z,8.00
2023-01-11T09:36:06.786Z,8.30
2023-01-11T09:37:07.037Z,7.70
2023-01-11T09:38:06.768Z,7.30
2023-01-11T09:39:06.747Z,6.90
2023-01-11T09:40:06.779Z,6.50
2023-01-11T09:41:06.734Z,6.70
2023-01-11T09:42:06.723Z,6.40
2023-01-11T09:43:06.718Z,6.50
2023-01-11T09:44:06.713Z,6.50
2023-01-11T09:45:06.714Z,6.50
2023-01-11T09:46:08.546Z,5.90
2023-01-11T09:47:07.682Z,6.00
2023-01-11T09:48:06.667Z,5.80
2023-01-11T09:49:06.664Z,5.50
2023-01-11T09:50:06.665Z,5.90
2023-01-11T09:51:06.645Z,5.80
2023-01-11T09:52:06.628Z,5.80
2023-01-11T09:53:06.647Z,5.40
2023-01-11T09:54:06.618Z,5.70
2023-01-11T09:55:06.622Z,6.30
2023-01-11T09:56:06.588Z,6.20
2023-01-11T09:57:06.585Z,6.50
2023-01-11T09:58:06.580Z,5.90
2023-01-11T09:59:06.579Z,6.10
2023-01-11T10:00:06.607Z,6.60
2023-01-11T10:01:06.597Z,5.50
2023-01-11T10:02:06.544Z,6.00
2023-01-11T10:03:06.530Z,6.00
2023-01-11T10:04:07.525Z,6.80
2023-01-11T10:05:06.580Z,6.50
2023-01-11T10:06:06.496Z,5.30
2023-01-11T10:07:06.495Z,7.10
2023-01-11T10:18:25.527Z,6.00
2023-01-11T10:18:29.968Z,6.00
2023-01-11T10:18:30.101Z,5.60
2023-01-11T10:18:34.250Z,5.50
2023-01-11T10:18:40.120Z,5.70
2023-01-11T10:20:08.449Z,5.10
2023-01-11T10:21:06.345Z,5.40
2023-01-11T10:22:06.351Z,5.30
2023-01-11T10:23:06.333Z,5.80
2023-01-11T10:24:06.317Z,5.90
2023-01-11T10:25:06.339Z,6.30
2023-01-11T10:26:06.304Z,5.40
2023-01-11T10:27:06.382Z,5.60
2023-01-11T10:28:06.287Z,5.60
2023-01-11T10:29:06.274Z,5.50
2023-01-11T10:30:06.274Z,5.20
2023-01-11T10:31:06.291Z,5.80
2023-01-11T10:32:06.298Z,5.50
2023-01-11T10:33:06.243Z,5.60
2023-01-11T10:34:06.249Z,6.30
2023-01-11T10:35:06.239Z,4.80
2023-01-11T10:36:06.220Z,4.60
2023-01-11T10:37:06.284Z,4.30
2023-01-11T10:38:06.231Z,4.70
2023-01-11T10:39:06.164Z,4.70
2023-01-11T10:40:07.178Z,4.70
2023-01-11T10:41:06.158Z,3.70
2023-01-11T10:42:06.148Z,3.30
2023-01-11T10:43:06.153Z,3.20
2023-01-11T10:44:06.153Z,3.30
2023-01-11T10:45:06.151Z,4.00
2023-01-11T10:47:06.099Z,3.60
2023-01-11T10:48:06.105Z,3.60
2023-01-11T10:49:06.083Z,3.70
2023-01-11T10:50:06.609Z,3.90
2023-01-11T10:51:06.077Z,3.70
2023-01-11T10:52:06.054Z,3.40
2023-01-11T10:53:06.048Z,3.50
2023-01-11T10:55:07.022Z,3.50
2023-01-11T10:56:06.052Z,3.70
2023-01-11T10:57:07.215Z,3.80
2023-01-11T10:58:07.054Z,4.40
2023-01-11T10:59:05.984Z,5.80
2023-01-11T11:00:05.975Z,6.70
2023-01-11T11:01:06.014Z,7.00
2023-01-11T11:02:06.043Z,8.90
2023-01-11T11:03:05.945Z,9.50
2023-01-11T11:04:05.955Z,8.70
2023-01-11T11:05:05.928Z,11.00
2023-01-11T11:06:05.939Z,11.00
2023-01-11T11:07:05.929Z,9.80
2023-01-11T11:08:05.928Z,10.00
2023-01-11T11:09:05.900Z,6.90
2023-01-11T11:10:05.905Z,6.60
2023-01-11T11:11:05.924Z,7.40
2023-01-11T11:12:05.874Z,6.10
2023-01-11T11:13:05.859Z,6.90
2023-01-11T11:14:05.843Z,7.50
2023-01-11T11:15:05.841Z,6.80
2023-01-11T11:16:05.887Z,8.60
2023-01-11T11:17:05.823Z,8.00
2023-01-11T11:18:05.832Z,8.90
2023-01-11T11:19:05.793Z,9.60
2023-01-11T11:20:05.790Z,10.20
2023-01-11T11:21:05.788Z,10.50
2023-01-11T11:22:05.780Z,9.60
2023-01-11T11:23:05.757Z,9.00
2023-01-11T11:24:05.750Z,9.90
2023-01-11T11:25:05.735Z,11.60
2023-01-11T11:26:05.738Z,8.70
2023-01-11T11:27:05.787Z,10.60
2023-01-11T11:28:05.707Z,10.90
2023-01-11T11:29:05.706Z,10.40
2023-01-11T11:30:05.698Z,9.50
2023-01-11T11:31:05.698Z,8.60
2023-01-11T11:32:05.678Z,8.60
2023-01-11T11:33:05.663Z,8.20
2023-01-11T11:34:05.659Z,8.70
2023-01-11T11:35:05.643Z,9.10
2023-01-11T11:36:05.644Z,9.20
2023-01-11T11:37:05.628Z,9.50
2023-01-11T11:38:05.618Z,8.40
2023-01-11T11:39:05.669Z,7.50
2023-01-11T11:40:05.600Z,6.10
2023-01-11T11:41:05.611Z,6.40
2023-01-11T11:42:05.576Z,6.50
2023-01-11T11:43:06.576Z,5.70
2023-01-11T11:44:05.563Z,6.00
2023-01-11T11:45:05.580Z,6.10
2023-01-11T11:46:05.587Z,5.70
2023-01-11T11:47:05.536Z,6.20
2023-01-11T11:48:05.531Z,6.80
2023-01-11T11:49:05.517Z,7.20
2023-01-11T11:50:05.517Z,6.40
2023-01-11T11:51:05.556Z,6.40
2023-01-11T11:52:05.505Z,6.10
2023-01-11T11:53:05.486Z,6.00
2023-01-11T11:54:05.517Z,6.20
2023-01-11T11:55:05.463Z,5.40
2023-01-11T11:56:05.462Z,6.50
2023-01-11T11:57:05.446Z,6.60
2023-01-11T11:58:05.440Z,6.00
2023-01-11T11:59:05.438Z,6.60
2023-01-11T12:00:05.420Z,6.80
2023-01-11T12:01:05.425Z,6.80
2023-01-11T12:02:05.440Z,6.70
2023-01-11T12:03:05.398Z,6.30
2023-01-11T12:04:05.407Z,7.20
2023-01-11T12:05:05.420Z,6.90
2023-01-11T12:06:05.387Z,6.90
2023-01-11T12:07:05.394Z,6.90
2023-01-11T12:08:05.366Z,8.50
2023-01-11T12:09:05.343Z,7.90
2023-01-11T12:10:05.326Z,8.20
2023-01-11T12:11:05.342Z,8.60
2023-01-11T12:12:05.309Z,9.60
2023-01-11T12:13:05.339Z,10.10
2023-01-11T12:14:05.312Z,10.00
2023-01-11T12:15:05.278Z,10.30
2023-01-11T12:16:05.288Z,10.10
2023-01-11T12:17:05.292Z,9.10
2023-01-11T12:18:05.263Z,9.00
2023-01-11T12:19:05.259Z,8.50
2023-01-11T12:20:05.230Z,8.80
2023-01-11T12:21:05.239Z,8.40
2023-01-11T12:22:06.221Z,7.80
2023-01-11T12:23:05.205Z,7.50
2023-01-11T12:24:05.205Z,8.50
2023-01-11T12:25:05.192Z,7.20
2023-01-11T12:26:05.200Z,11.10
2023-01-11T12:27:05.189Z,8.00
2023-01-11T12:28:05.160Z,9.20
2023-01-11T12:29:05.134Z,8.30
2023-01-11T12:30:05.156Z,8.00
2023-01-11T12:31:05.173Z,7.80
2023-01-11T12:32:05.117Z,7.70
2023-01-11T12:33:05.126Z,7.80
2023-01-11T12:34:05.145Z,7.50
2023-01-11T12:35:05.113Z,7.20
2023-01-11T12:36:05.086Z,7.80
2023-01-11T12:37:05.073Z,7.30
2023-01-11T12:38:05.062Z,7.70
2023-01-11T12:39:05.061Z,8.00
2023-01-11T12:40:05.049Z,8.50
2023-01-11T12:41:06.085Z,9.00
2023-01-11T12:42:05.048Z,9.10
2023-01-11T12:43:05.017Z,9.60
2023-01-11T12:44:05.015Z,9.30
2023-01-11T12:45:04.997Z,8.90
2023-01-11T12:46:05.065Z,9.40
2023-01-11T12:47:04.980Z,9.10
2023-01-11T12:48:04.972Z,9.40
2023-01-11T12:49:04.965Z,10.10
2023-01-11T12:50:04.957Z,10.70
2023-01-11T12:51:04.961Z,10.30
2023-01-11T12:52:04.936Z,9.70
2023-01-11T12:53:04.928Z,8.90
2023-01-11T12:54:04.919Z,8.40
2023-01-11T12:55:04.903Z,8.60
2023-01-11T12:56:04.900Z,9.30
2023-01-11T12:57:04.910Z,8.50
2023-01-11T12:58:04.876Z,9.20
2023-01-11T12:59:04.889Z,8.20
2023-01-11T13:00:04.866Z,8.00
2023-01-11T13:01:04.928Z,7.40
2023-01-11T13:02:04.887Z,5.30
2023-01-11T13:03:04.833Z,4.30
2023-01-11T13:04:04.819Z,4.50
2023-01-11T13:05:04.820Z,3.90
2023-01-11T13:06:04.812Z,3.60
2023-01-11T13:07:04.805Z,3.10
2023-01-11T13:08:04.778Z,3.10
2023-01-11T13:09:04.781Z,3.20
2023-01-11T13:10:04.766Z,3.60
2023-01-11T13:11:04.755Z,3.20
2023-01-11T13:12:04.762Z,3.10
2023-01-11T13:13:04.733Z,3.00
2023-01-11T13:14:04.724Z,3.00